Time,TemperatureF,DewpointF,PressureIn,WindDirection,WindDirectionDegrees,WindSpeedMPH,WindSpeedGustMPH,Humidity,HourlyPrecipIn,Conditions,Clouds,dailyrainin,SoftwareType,DateUTC
2013-10-27 00:02:00,-999.0,-99.9,-100.00,West,271,3.0,4.0,-999,-99.99,,,-99.99,,2013-10-27 04:02:00,
2013-10-27 00:13:00,51.0,33.0,-100.00,West,271,3.0,4.0,51,0.00,,,0.00,,2013-10-27 04:13:00,
2013-10-27 00:24:00,51.0,33.0,-100.00,West,271,3.0,4.0,51,0.00,,,0.00,,2013-10-27 04:24:00,
2013-10-27 00:40:00,51.0,35.0,-100.00,West,265,1.0,2.0,53,0.00,,,0.00,,2013-10-27 04:40:00,
2013-10-27 00:44:00,51.0,34.0,-100.00,West,265,3.0,5.0,52,0.00,,,0.00,,2013-10-27 04:44:00,
2013-10-27 00:54:00,51.0,35.0,-100.00,WSW,239,2.0,4.0,54,0.00,,,0.00,,2013-10-27 04:54:00,
2013-10-27 01:13:00,51.0,35.0,-100.00,West,265,1.0,2.0,53,0.00,,,0.00,,2013-10-27 05:13:00,
2013-10-27 01:23:00,51.0,35.0,-100.00,West,265,1.0,2.0,53,0.00,,,0.00,,2013-10-27 05:23:00,
2013-10-27 01:34:00,51.0,35.0,-100.00,West,265,1.0,2.0,53,0.00,,,0.00,,2013-10-27 05:34:00,
2013-10-27 01:52:00,51.0,34.0,-100.00,West,270,3.0,4.0,51,0.00,,,0.00,,2013-10-27 05:52:00,
2013-10-27 02:13:00,51.0,35.0,-100.00,West,268,3.0,4.0,52,0.00,,,0.00,,2013-10-27 06:13:00,
2013-10-27 02:22:00,51.0,35.0,-100.00,West,268,3.0,4.0,52,0.00,,,0.00,,2013-10-27 06:22:00,
2013-10-27 02:53:00,51.0,35.0,-100.00,West,265,4.0,7.0,54,0.00,,,0.00,,2013-10-27 06:53:00,
2013-10-27 03:12:00,51.0,35.0,-100.00,West,267,2.0,4.0,54,0.00,,,0.00,,2013-10-27 07:12:00,
2013-10-27 03:22:00,51.0,35.0,-100.00,West,267,2.0,4.0,54,0.00,,,0.00,,2013-10-27 07:22:00,
2013-10-27 03:42:00,50.0,35.0,-100.00,West,264,2.0,3.0,56,0.00,,,0.00,,2013-10-27 07:42:00,
2013-10-27 03:52:00,50.0,35.0,-100.00,West,264,2.0,3.0,56,0.00,,,0.00,,2013-10-27 07:52:00,
2013-10-27 04:11:00,49.0,35.0,-100.00,West,264,3.0,5.0,58,0.00,,,0.00,,2013-10-27 08:11:00,
2013-10-27 04:22:00,49.0,35.0,-100.00,West,264,3.0,5.0,58,0.00,,,0.00,,2013-10-27 08:22:00,
2013-10-27 04:42:00,49.0,36.0,-100.00,West,263,4.0,6.0,60,0.00,,,0.00,,2013-10-27 08:42:00,
2013-10-27 04:52:00,48.0,36.0,-100.00,West,271,2.0,3.0,63,0.00,,,0.00,,2013-10-27 08:52:00,
2013-10-27 05:12:00,47.0,36.0,-100.00,NW,322,1.0,2.0,64,0.00,,,0.00,,2013-10-27 09:12:00,
2013-10-27 05:22:00,47.0,37.0,-100.00,West,272,2.0,3.0,67,0.00,,,0.00,,2013-10-27 09:22:00,
2013-10-27 05:33:00,47.0,37.0,-100.00,West,272,2.0,3.0,67,0.00,,,0.00,,2013-10-27 09:33:00,
2013-10-27 05:54:00,47.0,36.0,-100.00,West,280,3.0,5.0,66,0.00,,,0.00,,2013-10-27 09:54:00,
2013-10-27 06:13:00,47.0,36.0,-100.00,WNW,301,2.0,3.0,65,0.00,,,0.00,,2013-10-27 10:13:00,
2013-10-27 06:20:00,45.0,37.0,-100.00,NW,323,0.0,2.0,73,0.00,,,0.00,,2013-10-27 10:20:00,
2013-10-27 06:23:00,47.0,36.0,-100.00,WNW,301,2.0,3.0,65,0.00,,,0.00,,2013-10-27 10:23:00,
2013-10-27 06:42:00,46.0,37.0,-100.00,West,277,2.0,3.0,71,0.00,,,0.00,,2013-10-27 10:42:00,
2013-10-27 06:53:00,45.0,37.0,-100.00,NW,323,0.0,2.0,73,0.00,,,0.00,,2013-10-27 10:53:00,
2013-10-27 07:03:00,45.0,37.0,-100.00,NW,323,0.0,2.0,73,0.00,,,0.00,,2013-10-27 11:03:00,
2013-10-27 07:12:00,45.0,37.0,-100.00,NW,323,0.0,2.0,73,0.00,,,0.00,,2013-10-27 11:12:00,
2013-10-27 07:42:00,43.0,38.0,-100.00,NW,311,0.0,1.0,81,0.00,,,0.00,,2013-10-27 11:42:00,
2013-10-27 07:52:00,42.0,38.0,-100.00,NW,308,0.0,0.0,84,0.00,,,0.00,,2013-10-27 11:52:00,
2013-10-27 08:12:00,42.0,38.0,-100.00,SW,222,0.0,1.0,84,0.00,,,0.00,,2013-10-27 12:12:00,
2013-10-27 08:22:00,42.0,38.0,-100.00,WSW,257,1.0,2.0,84,0.00,,,0.00,,2013-10-27 12:22:00,
2013-10-27 08:32:00,42.0,38.0,-100.00,WSW,257,1.0,2.0,84,0.00,,,0.00,,2013-10-27 12:32:00,
2013-10-27 08:52:00,44.0,37.0,-100.00,NW,311,0.0,1.0,78,0.00,,,0.00,,2013-10-27 12:52:00,
2013-10-27 09:02:00,44.0,37.0,-100.00,NW,311,0.0,1.0,78,0.00,,,0.00,,2013-10-27 13:02:00,
2013-10-27 09:21:00,47.0,37.0,-100.00,WNW,295,1.0,2.0,68,0.00,,,0.00,,2013-10-27 13:21:00,
2013-10-27 09:32:00,47.0,37.0,-100.00,WNW,295,1.0,2.0,68,0.00,,,0.00,,2013-10-27 13:32:00,
2013-10-27 09:42:00,47.0,37.0,-100.00,WNW,295,1.0,2.0,68,0.00,,,0.00,,2013-10-27 13:42:00,
2013-10-27 09:52:00,48.0,38.0,-100.00,NW,304,0.0,1.0,67,0.00,,,0.00,,2013-10-27 13:52:00,
2013-10-27 10:00:00,52.0,38.0,-100.00,WNW,289,2.0,3.0,58,0.00,,,0.00,,2013-10-27 14:00:00,
2013-10-27 10:22:00,52.0,38.0,-100.00,WNW,289,2.0,3.0,58,0.00,,,0.00,,2013-10-27 14:22:00,
2013-10-27 10:32:00,52.0,38.0,-100.00,WNW,289,2.0,3.0,58,0.00,,,0.00,,2013-10-27 14:32:00,
2013-10-27 10:42:00,52.0,38.0,-100.00,WNW,289,2.0,3.0,58,0.00,,,0.00,,2013-10-27 14:42:00,
2013-10-27 10:52:00,52.0,38.0,-100.00,WNW,289,2.0,3.0,58,0.00,,,0.00,,2013-10-27 14:52:00,
2013-10-27 11:22:00,56.0,41.0,-100.00,NE,56,6.0,7.0,55,0.00,,,0.00,,2013-10-27 15:22:00,
2013-10-27 11:34:00,56.0,41.0,-100.00,NE,56,6.0,7.0,55,0.00,,,0.00,,2013-10-27 15:34:00,
2013-10-27 11:44:00,56.0,41.0,-100.00,NE,56,6.0,7.0,55,0.00,,,0.00,,2013-10-27 15:44:00,
2013-10-27 11:54:00,58.0,41.0,-100.00,ENE,58,6.0,8.0,52,0.00,,,0.00,,2013-10-27 15:54:00,
2013-10-27 12:13:00,60.0,37.0,-100.00,NNE,31,4.0,7.0,42,0.00,,,0.00,,2013-10-27 16:13:00,
2013-10-27 12:24:00,60.0,37.0,-100.00,NNE,31,4.0,7.0,42,0.00,,,0.00,,2013-10-27 16:24:00,
2013-10-27 12:43:00,60.0,37.0,-100.00,NNE,28,8.0,10.0,41,0.00,,,0.00,,2013-10-27 16:43:00,
2013-10-27 12:54:00,61.0,35.0,-100.00,NNE,23,6.0,10.0,37,0.00,,,0.00,,2013-10-27 16:54:00,
2013-10-27 13:04:00,61.0,35.0,-100.00,NNE,23,6.0,10.0,37,0.00,,,0.00,,2013-10-27 17:04:00,
2013-10-27 13:22:00,62.0,37.0,-100.00,NE,37,9.0,12.0,39,0.00,,,0.00,,2013-10-27 17:22:00,
2013-10-27 13:53:00,63.0,35.0,-100.00,North,356,3.0,6.0,34,0.00,,,0.00,,2013-10-27 17:53:00,
2013-10-27 14:12:00,63.0,35.0,-100.00,NNE,28,7.0,10.0,34,0.00,,,0.00,,2013-10-27 18:12:00,
2013-10-27 14:22:00,63.0,35.0,-100.00,NNE,28,7.0,10.0,34,0.00,,,0.00,,2013-10-27 18:22:00,
2013-10-27 14:53:00,66.0,35.0,-100.00,WNW,288,3.0,6.0,31,-99.99,,,-99.99,,2013-10-27 18:53:00,
2013-10-27 15:02:00,66.0,35.0,-100.00,WNW,288,3.0,6.0,31,-99.99,,,-99.99,,2013-10-27 19:02:00,
2013-10-27 15:22:00,65.0,34.0,-100.00,West,267,7.0,11.0,31,0.00,,,-99.99,,2013-10-27 19:22:00,
2013-10-27 15:32:00,65.0,34.0,-100.00,West,267,7.0,11.0,31,0.00,,,-99.99,,2013-10-27 19:32:00,
2013-10-27 15:52:00,67.0,35.0,-100.00,West,277,4.0,8.0,30,0.00,,,-99.99,,2013-10-27 19:52:00,
2013-10-27 16:12:00,66.0,34.0,-100.00,NNW,340,5.0,9.0,31,0.00,,,-99.99,,2013-10-27 20:12:00,
2013-10-27 16:22:00,67.0,34.0,-100.00,SSW,206,1.0,3.0,30,0.00,,,-99.99,,2013-10-27 20:22:00,
2013-10-27 16:32:00,67.0,34.0,-100.00,SSW,206,1.0,3.0,30,0.00,,,-99.99,,2013-10-27 20:32:00,
2013-10-27 16:52:00,67.0,35.0,-100.00,NW,318,2.0,5.0,31,0.00,,,-99.99,,2013-10-27 20:52:00,
2013-10-27 17:11:00,67.0,35.0,-100.00,West,270,4.0,6.0,31,0.00,,,-99.99,,2013-10-27 21:11:00,
2013-10-27 17:21:00,66.0,34.0,-100.00,West,278,4.0,7.0,31,0.00,,,-99.99,,2013-10-27 21:21:00,
2013-10-27 17:34:00,66.0,34.0,-100.00,West,278,4.0,7.0,31,0.00,,,-99.99,,2013-10-27 21:34:00,
2013-10-27 17:43:00,66.0,34.0,-100.00,West,278,4.0,7.0,31,0.00,,,-99.99,,2013-10-27 21:43:00,
2013-10-27 17:54:00,66.0,34.0,-100.00,West,278,4.0,7.0,31,0.00,,,-99.99,,2013-10-27 21:54:00,
2013-10-27 18:13:00,65.0,35.0,-100.00,NW,325,2.0,4.0,32,0.00,,,-99.99,,2013-10-27 22:13:00,
2013-10-27 18:24:00,61.0,38.0,-100.00,SW,234,0.0,1.0,42,0.00,,,-99.99,,2013-10-27 22:24:00,
2013-10-27 18:33:00,61.0,38.0,-100.00,SW,234,0.0,1.0,42,0.00,,,-99.99,,2013-10-27 22:33:00,
2013-10-27 18:43:00,61.0,38.0,-100.00,SW,234,0.0,1.0,42,0.00,,,-99.99,,2013-10-27 22:43:00,
2013-10-27 18:54:00,58.0,42.0,-100.00,SSW,206,0.0,1.0,55,0.00,,,-99.99,,2013-10-27 22:54:00,
2013-10-27 19:22:00,55.0,41.0,-100.00,SW,227,1.0,1.0,59,0.00,,,-99.99,,2013-10-27 23:22:00,
2013-10-27 19:42:00,53.0,42.0,-100.00,WSW,240,0.0,1.0,65,0.00,,,-99.99,,2013-10-27 23:42:00,
2013-10-27 19:52:00,52.0,42.0,-100.00,WNW,299,1.0,2.0,69,0.00,,,-99.99,,2013-10-27 23:52:00,
2013-10-27 20:11:00,51.0,41.0,-100.00,WNW,302,2.0,3.0,68,0.00,,,-99.99,,2013-10-28 00:11:00,
2013-10-27 20:22:00,51.0,41.0,-100.00,WNW,302,2.0,3.0,68,0.00,,,-99.99,,2013-10-28 00:22:00,
2013-10-27 20:43:00,50.0,42.0,-100.00,West,275,2.0,3.0,73,0.00,,,-99.99,,2013-10-28 00:43:00,
2013-10-27 20:52:00,49.0,42.0,-100.00,West,271,2.0,3.0,76,0.00,,,-99.99,,2013-10-28 00:52:00,
2013-10-27 21:12:00,49.0,43.0,-100.00,West,263,3.0,3.0,78,0.00,,,-99.99,,2013-10-28 01:12:00,
2013-10-27 21:22:00,49.0,43.0,-100.00,West,263,3.0,3.0,78,0.00,,,-99.99,,2013-10-28 01:22:00,
2013-10-27 21:42:00,48.0,42.0,-100.00,WSW,253,3.0,3.0,79,0.00,,,-99.99,,2013-10-28 01:42:00,
2013-10-27 21:52:00,48.0,43.0,-100.00,West,260,2.0,3.0,83,0.00,,,-99.99,,2013-10-28 01:52:00,
2013-10-27 22:02:00,48.0,43.0,-100.00,West,260,2.0,3.0,83,0.00,,,-99.99,,2013-10-28 02:02:00,
2013-10-27 22:20:00,47.0,43.0,-100.00,WNW,299,2.0,3.0,87,0.00,,,-99.99,,2013-10-28 02:20:00,
2013-10-27 22:22:00,47.0,43.0,-100.00,WSW,250,1.0,2.0,85,0.00,,,-99.99,,2013-10-28 02:22:00,
2013-10-27 22:42:00,47.0,43.0,-100.00,West,268,1.0,2.0,85,0.00,,,-99.99,,2013-10-28 02:42:00,
2013-10-27 22:53:00,47.0,43.0,-100.00,WNW,299,2.0,3.0,87,0.00,,,-99.99,,2013-10-28 02:53:00,
2013-10-27 23:02:00,47.0,43.0,-100.00,WNW,299,2.0,3.0,87,0.00,,,-99.99,,2013-10-28 03:02:00,
2013-10-27 23:11:00,47.0,43.0,-100.00,WNW,299,2.0,3.0,87,0.00,,,-99.99,,2013-10-28 03:11:00,
2013-10-27 23:44:00,46.0,43.0,-100.00,West,260,2.0,3.0,87,0.00,,,-99.99,,2013-10-28 03:44:00,
2013-10-27 23:54:00,46.0,43.0,-100.00,West,274,2.0,2.0,89,0.00,,,-99.99,,2013-10-28 03:54:00,